Time,TemperatureF,DewpointF,PressureIn,WindDirection,WindDirectionDegrees,WindSpeedMPH,WindSpeedGustMPH,Humidity,HourlyPrecipIn,Conditions,Clouds,dailyrainin,SoftwareType,DateUTC
2013-12-14 00:01:00,37.9,22.3,29.78,South,180,5.3,-999.0,53,-99.99,,,0.00,Acu-Link.com,2013-12-14 05:01:00,
2013-12-14 00:16:00,36.9,22.7,29.77,South,180,10.4,-999.0,56,-99.99,,,0.00,Acu-Link.com,2013-12-14 05:16:00,
2013-12-14 00:31:00,37.0,25.2,29.76,West,270,3.2,-999.0,62,-99.99,,,0.00,Acu-Link.com,2013-12-14 05:31:00,
2013-12-14 00:46:00,36.7,26.4,29.74,NNE,22,6.3,-999.0,66,-99.99,,,0.00,Acu-Link.com,2013-12-14 05:46:00,
2013-12-14 01:01:00,36.1,25.5,29.75,SSW,202,3.7,-999.0,65,-99.99,,,0.00,Acu-Link.com,2013-12-14 06:01:00,
2013-12-14 01:17:00,36.3,25.7,29.76,SW,225,1.1,-999.0,65,-99.99,,,0.00,Acu-Link.com,2013-12-14 06:17:00,
2013-12-14 01:32:00,36.0,26.5,29.73,ENE,67,5.3,-999.0,68,-99.99,,,0.00,Acu-Link.com,2013-12-14 06:32:00,
2013-12-14 01:47:00,37.0,26.3,29.73,NNW,337,4.2,-999.0,65,-99.99,,,0.00,Acu-Link.com,2013-12-14 06:47:00,
2013-12-14 02:02:00,36.0,26.1,29.75,SW,225,2.2,-999.0,67,-99.99,,,0.00,Acu-Link.com,2013-12-14 07:02:00,
2013-12-14 02:17:00,36.1,26.6,29.75,WSW,247,6.8,-999.0,68,-99.99,,,0.00,Acu-Link.com,2013-12-14 07:17:00,
2013-12-14 02:33:00,36.7,26.8,29.74,East,90,2.7,-999.0,67,-99.99,,,0.00,Acu-Link.com,2013-12-14 07:33:00,
2013-12-14 02:48:00,36.7,27.5,29.75,SSW,202,5.3,-999.0,69,-99.99,,,0.00,Acu-Link.com,2013-12-14 07:48:00,
2013-12-14 03:03:00,36.9,29.1,29.74,ENE,67,3.2,-999.0,73,-99.99,,,0.00,Acu-Link.com,2013-12-14 08:03:00,
2013-12-14 03:19:00,36.7,30.8,29.71,ENE,67,5.8,-999.0,79,-99.99,,,0.00,Acu-Link.com,2013-12-14 08:19:00,
2013-12-14 03:34:00,36.7,30.5,29.70,ENE,67,7.3,-999.0,78,-99.99,,,0.00,Acu-Link.com,2013-12-14 08:34:00,
2013-12-14 03:49:00,36.5,30.3,29.70,East,90,8.3,-999.0,78,-99.99,,,0.00,Acu-Link.com,2013-12-14 08:49:00,
2013-12-14 04:04:00,37.4,30.5,29.69,East,90,6.3,-999.0,76,-99.99,,,0.00,Acu-Link.com,2013-12-14 09:04:00,
2013-12-14 04:19:00,36.5,31.2,29.68,NE,45,4.7,-999.0,81,-99.99,,,0.00,Acu-Link.com,2013-12-14 09:19:00,
2013-12-14 04:35:00,36.1,31.4,29.67,NNE,22,3.7,-999.0,83,-99.99,,,0.00,Acu-Link.com,2013-12-14 09:35:00,
2013-12-14 04:50:00,36.7,32.0,29.66,NNE,22,4.2,-999.0,83,-99.99,,,0.00,Acu-Link.com,2013-12-14 09:50:00,
2013-12-14 05:05:00,36.7,32.3,29.66,NNW,337,4.2,-999.0,84,-99.99,,,0.00,Acu-Link.com,2013-12-14 10:05:00,
2013-12-14 05:20:00,36.5,33.0,29.66,NNE,22,3.7,-999.0,87,-99.99,,,0.00,Acu-Link.com,2013-12-14 10:20:00,
2013-12-14 05:36:00,36.7,32.6,29.66,SE,135,0.0,-999.0,85,-99.99,,,0.00,Acu-Link.com,2013-12-14 10:36:00,
2013-12-14 05:51:00,36.7,33.2,29.66,SW,225,1.7,-999.0,87,-99.99,,,0.00,Acu-Link.com,2013-12-14 10:51:00,
2013-12-14 06:06:00,37.6,33.2,29.66,ESE,112,4.7,-999.0,84,-99.99,,,0.00,Acu-Link.com,2013-12-14 11:06:00,
2013-12-14 06:21:00,37.8,33.1,29.67,SSE,157,2.7,-999.0,83,-99.99,,,0.00,Acu-Link.com,2013-12-14 11:21:00,
2013-12-14 06:36:00,37.9,32.9,29.69,SSE,157,9.4,-999.0,82,-99.99,,,0.00,Acu-Link.com,2013-12-14 11:36:00,
2013-12-14 06:52:00,37.2,34.0,29.70,South,180,10.4,-999.0,88,-99.99,,,0.00,Acu-Link.com,2013-12-14 11:52:00,
2013-12-14 07:07:00,36.1,34.0,29.68,ESE,112,6.3,-999.0,92,-99.99,,,0.01,Acu-Link.com,2013-12-14 12:07:00,
2013-12-14 07:22:00,35.8,34.2,29.66,NE,45,5.3,-999.0,94,-99.99,,,0.04,Acu-Link.com,2013-12-14 12:22:00,
2013-12-14 07:37:00,35.1,34.1,29.64,ENE,67,5.8,-999.0,96,-99.99,,,0.06,Acu-Link.com,2013-12-14 12:37:00,
2013-12-14 07:52:00,34.9,34.1,29.65,East,90,5.3,-999.0,97,-99.99,,,0.09,Acu-Link.com,2013-12-14 12:52:00,
2013-12-14 08:08:00,34.9,34.1,29.64,ESE,112,6.8,-999.0,97,-99.99,,,0.10,Acu-Link.com,2013-12-14 13:08:00,
2013-12-14 08:23:00,34.9,34.1,29.63,East,90,6.8,-999.0,97,-99.99,,,0.12,Acu-Link.com,2013-12-14 13:23:00,
2013-12-14 08:38:00,35.1,34.6,29.63,ESE,112,6.3,-999.0,98,-99.99,,,0.12,Acu-Link.com,2013-12-14 13:38:00,
2013-12-14 08:53:00,35.6,35.1,29.61,ESE,112,5.8,-999.0,98,-99.99,,,0.15,Acu-Link.com,2013-12-14 13:53:00,
2013-12-14 09:09:00,36.0,35.5,29.59,East,90,5.8,-999.0,98,-99.99,,,0.16,Acu-Link.com,2013-12-14 14:09:00,
2013-12-14 09:24:00,36.1,35.6,29.59,East,90,8.3,-999.0,98,-99.99,,,0.18,Acu-Link.com,2013-12-14 14:24:00,
2013-12-14 09:39:00,36.5,36.0,29.57,East,90,6.3,-999.0,98,-99.99,,,0.21,Acu-Link.com,2013-12-14 14:39:00,
2013-12-14 09:54:00,36.9,36.4,29.55,ESE,112,6.8,-999.0,98,-99.99,,,0.24,Acu-Link.com,2013-12-14 14:54:00,
2013-12-14 10:09:00,37.4,36.9,29.54,ESE,112,5.8,-999.0,98,-99.99,,,0.25,Acu-Link.com,2013-12-14 15:09:00,
2013-12-14 10:25:00,37.6,37.1,29.53,ESE,112,3.2,-999.0,98,-99.99,,,0.26,Acu-Link.com,2013-12-14 15:25:00,
2013-12-14 10:40:00,37.6,37.1,29.51,East,90,5.8,-999.0,98,-99.99,,,0.28,Acu-Link.com,2013-12-14 15:40:00,
2013-12-14 10:55:00,37.9,37.4,29.49,ESE,112,10.4,-999.0,98,-99.99,,,0.34,Acu-Link.com,2013-12-14 15:55:00,
2013-12-14 11:11:00,38.3,37.5,29.47,NE,45,7.3,-999.0,97,-99.99,,,0.35,Acu-Link.com,2013-12-14 16:11:00,
2013-12-14 11:26:00,38.5,37.7,29.45,ENE,67,4.2,-999.0,97,-99.99,,,0.36,Acu-Link.com,2013-12-14 16:26:00,
2013-12-14 11:41:00,38.5,37.7,29.42,NE,45,4.2,-999.0,97,-99.99,,,0.38,Acu-Link.com,2013-12-14 16:41:00,
2013-12-14 11:56:00,38.7,37.9,29.42,ENE,67,4.7,-999.0,97,-99.99,,,0.47,Acu-Link.com,2013-12-14 16:56:00,
2013-12-14 12:11:00,38.8,38.3,29.41,ESE,112,5.8,-999.0,98,-99.99,,,0.54,Acu-Link.com,2013-12-14 17:11:00,
2013-12-14 12:27:00,39.4,38.9,29.41,SSW,202,2.7,-999.0,98,-99.99,,,0.56,Acu-Link.com,2013-12-14 17:27:00,
2013-12-14 12:42:00,39.7,39.2,29.40,ESE,112,7.3,-999.0,98,-99.99,,,0.57,Acu-Link.com,2013-12-14 17:42:00,
2013-12-14 12:57:00,40.1,39.6,29.39,South,180,4.2,-999.0,98,-99.99,,,0.62,Acu-Link.com,2013-12-14 17:57:00,
2013-12-14 13:12:00,40.1,39.6,29.39,South,180,3.7,-999.0,98,-99.99,,,0.64,Acu-Link.com,2013-12-14 18:12:00,
2013-12-14 13:27:00,40.3,40.0,29.37,SE,135,5.8,-999.0,99,-99.99,,,0.66,Acu-Link.com,2013-12-14 18:27:00,
2013-12-14 13:43:00,40.3,40.0,29.36,SE,135,4.2,-999.0,99,-99.99,,,0.67,Acu-Link.com,2013-12-14 18:43:00,
2013-12-14 13:58:00,40.3,40.0,29.36,ESE,112,5.3,-999.0,99,-99.99,,,0.67,Acu-Link.com,2013-12-14 18:58:00,
2013-12-14 14:13:00,40.3,40.0,29.35,ESE,112,4.7,-999.0,99,-99.99,,,0.67,Acu-Link.com,2013-12-14 19:13:00,
2013-12-14 14:28:00,40.5,40.2,29.34,SE,135,3.7,-999.0,99,-99.99,,,0.68,Acu-Link.com,2013-12-14 19:28:00,
2013-12-14 14:43:00,40.6,40.3,29.34,SSE,157,3.7,-999.0,99,-99.99,,,0.68,Acu-Link.com,2013-12-14 19:43:00,
2013-12-14 14:59:00,40.8,40.5,29.33,ESE,112,2.2,-999.0,99,-99.99,,,0.68,Acu-Link.com,2013-12-14 19:59:00,
2013-12-14 15:14:00,41.2,40.9,29.34,SSE,157,1.7,-999.0,99,-99.99,,,0.68,Acu-Link.com,2013-12-14 20:14:00,
2013-12-14 15:29:00,41.2,40.9,29.34,SSW,202,2.7,-999.0,99,-99.99,,,0.68,Acu-Link.com,2013-12-14 20:29:00,
2013-12-14 15:44:00,41.2,40.9,29.34,SSW,202,3.2,-999.0,99,-99.99,,,0.68,Acu-Link.com,2013-12-14 20:44:00,
2013-12-14 16:00:00,41.2,40.9,29.35,SW,225,3.7,-999.0,99,-99.99,,,0.69,Acu-Link.com,2013-12-14 21:00:00,
2013-12-14 16:15:00,41.0,40.7,29.35,WSW,247,2.2,-999.0,99,-99.99,,,0.69,Acu-Link.com,2013-12-14 21:15:00,
2013-12-14 16:30:00,41.0,40.7,29.35,WSW,247,1.7,-999.0,99,-99.99,,,0.70,Acu-Link.com,2013-12-14 21:30:00,
2013-12-14 16:45:00,41.0,40.7,29.35,SW,225,2.2,-999.0,99,-99.99,,,0.70,Acu-Link.com,2013-12-14 21:45:00,
2013-12-14 17:00:00,41.4,41.1,29.35,SW,225,2.2,-999.0,99,-99.99,,,0.71,Acu-Link.com,2013-12-14 22:00:00,
2013-12-14 17:16:00,41.7,41.4,29.35,SW,225,3.7,-999.0,99,-99.99,,,0.71,Acu-Link.com,2013-12-14 22:16:00,
2013-12-14 17:31:00,41.9,41.6,29.36,SW,225,4.2,-999.0,99,-99.99,,,0.72,Acu-Link.com,2013-12-14 22:31:00,
2013-12-14 17:46:00,42.6,42.3,29.36,SW,225,9.4,-999.0,99,-99.99,,,0.72,Acu-Link.com,2013-12-14 22:46:00,
2013-12-14 18:01:00,43.3,43.0,29.36,WSW,247,8.9,-999.0,99,-99.99,,,0.72,Acu-Link.com,2013-12-14 23:01:00,
2013-12-14 18:16:00,43.3,43.0,29.37,SW,225,9.4,-999.0,99,-99.99,,,0.72,Acu-Link.com,2013-12-14 23:16:00,
2013-12-14 18:32:00,42.8,42.5,29.38,SW,225,7.8,-999.0,99,-99.99,,,0.72,Acu-Link.com,2013-12-14 23:32:00,
2013-12-14 18:47:00,42.3,42.0,29.38,West,270,9.4,-999.0,99,-99.99,,,0.72,Acu-Link.com,2013-12-14 23:47:00,
2013-12-14 19:02:00,41.5,41.2,29.39,West,270,6.8,-999.0,99,-99.99,,,0.72,Acu-Link.com,2013-12-15 00:02:00,
2013-12-14 19:17:00,40.8,40.5,29.40,West,270,9.4,-999.0,99,-99.99,,,0.72,Acu-Link.com,2013-12-15 00:17:00,
2013-12-14 19:33:00,40.5,40.2,29.40,West,270,10.9,-999.0,99,-99.99,,,0.72,Acu-Link.com,2013-12-15 00:33:00,
2013-12-14 19:48:00,40.1,39.8,29.41,WSW,247,7.3,-999.0,99,-99.99,,,0.72,Acu-Link.com,2013-12-15 00:48:00,
2013-12-14 20:03:00,39.7,39.4,29.41,West,270,8.3,-999.0,99,-99.99,,,0.72,Acu-Link.com,2013-12-15 01:03:00,
2013-12-14 20:18:00,39.7,39.2,29.41,West,270,10.9,-999.0,98,-99.99,,,0.72,Acu-Link.com,2013-12-15 01:18:00,
2013-12-14 20:35:00,39.6,39.1,29.41,West,270,9.9,-999.0,98,-99.99,,,0.72,Acu-Link.com,2013-12-15 01:35:00,
2013-12-14 20:50:00,38.7,38.2,29.41,West,270,9.4,-999.0,98,-99.99,,,0.72,Acu-Link.com,2013-12-15 01:50:00,
2013-12-14 21:31:00,38.5,38.0,29.41,WSW,247,9.4,-999.0,98,-99.99,,,0.72,Acu-Link.com,2013-12-15 02:31:00,
2013-12-14 21:47:00,37.8,37.5,29.44,WSW,247,8.3,-999.0,99,-99.99,,,0.72,Acu-Link.com,2013-12-15 02:47:00,
2013-12-14 22:03:00,37.4,37.1,29.44,WSW,247,15.0,-999.0,99,-99.99,,,0.72,Acu-Link.com,2013-12-15 03:03:00,
2013-12-14 22:18:00,37.2,36.9,29.45,West,270,10.4,-999.0,99,-99.99,,,0.72,Acu-Link.com,2013-12-15 03:18:00,
2013-12-14 22:33:00,37.0,36.7,29.46,West,270,11.4,-999.0,99,-99.99,,,0.72,Acu-Link.com,2013-12-15 03:33:00,
2013-12-14 22:48:00,36.9,36.6,29.46,WSW,247,7.8,-999.0,99,-99.99,,,0.73,Acu-Link.com,2013-12-15 03:48:00,
2013-12-14 23:03:00,36.7,36.4,29.45,West,270,11.4,-999.0,99,-99.99,,,0.73,Acu-Link.com,2013-12-15 04:03:00,
2013-12-14 23:19:00,36.3,36.0,29.46,WSW,247,9.4,-999.0,99,-99.99,,,0.73,Acu-Link.com,2013-12-15 04:19:00,
2013-12-14 23:34:00,35.6,35.3,29.46,West,270,11.9,-999.0,99,-99.99,,,0.73,Acu-Link.com,2013-12-15 04:34:00,
2013-12-14 23:49:00,35.1,34.8,29.46,West,270,9.9,-999.0,99,-99.99,,,0.73,Acu-Link.com,2013-12-15 04:49:00,